Madares — SVA6080 — position and weather

sailwx.info

Track history (hours):
 
Tides and Currents Weather Stations Pressure Air Temp Water Temp Dewpoint Dewpoint Depression Visibility Wind Speed Wind Dir Waves Ship Positions

Madares

Last reported at 2018-Jun-16 06:40 UTC. Time now 2018-Jun-19 12:21 UTC.
Position N 37°40' E 024°47'.

Length 38 m; draft 6 m.

Type: Cargo ship. MMSI: 239863100.

Date/timePositionNaut miles runAvg speedWind from/ knotsBaromVisibWave heightAir tempDewpointWater temp
2018-Jun-16 06:40N 37°40' E 024°47'3 8.8
2018-Jun-16 06:19N 37°38' E 024°50'15 8.8
2018-Jun-16 04:35N 37°27' E 025°03'1 8.8
2018-Jun-16 04:30N 37°27' E 025°04'4 8.6
2018-Jun-16 04:00N 37°24' E 025°08'4 9.0
2018-Jun-16 03:30N 37°20' E 025°11'5 9.0
2018-Jun-16 03:00N 37°17' E 025°15'4 8.7
2018-Jun-16 02:30N 37°13' E 025°18'4 8.4
2018-Jun-16 02:00N 37°09' E 025°20'5 9.7
2018-Jun-16 01:30N 37°05' E 025°18'5 9.4
2018-Jun-16 01:00N 36°60' E 025°17'2 0.1
2018-Jun-14 16:16N 36°59' E 025°19'2 9.4
2018-Jun-14 16:00N 37°01' E 025°19'4 8.9
2018-Jun-14 15:30N 37°06' E 025°19'4 8.8
2018-Jun-14 15:00N 37°10' E 025°19'5 9.2
2018-Jun-14 14:30N 37°15' E 025°19'5 9.5
2018-Jun-14 14:00N 37°20' E 025°18'5 9.7
2018-Jun-14 13:30N 37°24' E 025°17'3 2.8
2018-Jun-14 12:35N 37°27' E 025°19'0 0.0
2018-Jun-14 12:11N 37°27' E 025°19'0 0.1
2018-Jun-14 11:59N 37°27' E 025°19'0 0.0
2018-Jun-14 10:59N 37°27' E 025°19'0 0.1
2018-Jun-14 10:14N 37°27' E 025°19'0 0.0
2018-Jun-14 07:23N 37°27' E 025°19'0 0.1
2018-Jun-14 06:53N 37°27' E 025°19'1 2.9
2018-Jun-14 06:30N 37°28' E 025°20'0 0.2
2018-Jun-14 06:00N 37°28' E 025°20'0 0.0
2018-Jun-14 05:27N 37°28' E 025°20'0 0.0
2018-Jun-14 04:57N 37°28' E 025°20'0 0.0
2018-Jun-14 04:30N 37°28' E 025°20'0 0.0
2018-Jun-14 04:00N 37°28' E 025°20'0 0.0
2018-Jun-14 03:30N 37°28' E 025°20'0 0.0
2018-Jun-14 03:00N 37°28' E 025°20'0 0.0
2018-Jun-14 02:30N 37°28' E 025°20'0 0.0
2018-Jun-14 02:00N 37°28' E 025°20'0 0.0
2018-Jun-14 01:30N 37°28' E 025°20'0 0.0
2018-Jun-14 01:00N 37°28' E 025°20'0 0.0
2018-Jun-14 00:30N 37°28' E 025°20'0 0.0
2018-Jun-13 23:57N 37°28' E 025°20'0 0.0
2018-Jun-13 23:30N 37°28' E 025°20'0 0.0
2018-Jun-13 23:00N 37°28' E 025°20'0 0.0
2018-Jun-13 22:30N 37°28' E 025°20'0 0.0
2018-Jun-13 22:00N 37°28' E 025°20'0 0.0
2018-Jun-13 21:30N 37°28' E 025°20'0 0.0
2018-Jun-13 20:59N 37°28' E 025°20'0 0.0
2018-Jun-13 20:29N 37°28' E 025°20'0 0.0
2018-Jun-13 19:56N 37°28' E 025°20'0 0.0
2018-Jun-13 19:29N 37°28' E 025°20'0 0.0
2018-Jun-13 18:59N 37°28' E 025°20'0 0.0
2018-Jun-13 18:26N 37°28' E 025°20'0 0.0
2018-Jun-13 17:56N 37°28' E 025°20'0 0.0
2018-Jun-13 17:29N 37°28' E 025°20'0 0.0
2018-Jun-13 16:59N 37°28' E 025°20'0 0.0
2018-Jun-13 16:29N 37°28' E 025°20'0 0.0
2018-Jun-13 15:59N 37°28' E 025°20'0 0.0
2018-Jun-13 15:29N 37°28' E 025°20'0 0.0
2018-Jun-13 14:59N 37°28' E 025°20'0 0.0
2018-Jun-13 14:29N 37°28' E 025°20'0 0.0
2018-Jun-13 13:59N 37°28' E 025°20'0 0.0
2018-Jun-13 13:29N 37°28' E 025°20'0 0.0
2018-Jun-13 12:59N 37°28' E 025°20'0 0.0
2018-Jun-13 12:29N 37°28' E 025°20'0 0.0
2018-Jun-13 11:59N 37°28' E 025°20'0 0.1
2018-Jun-13 11:29N 37°28' E 025°20'1 2.2
2018-Jun-13 10:58N 37°27' E 025°19'0 0.2
2018-Jun-13 10:25N 37°26' E 025°19'0 0.0
2018-Jun-13 09:49N 37°26' E 025°19'0 0.0
2018-Jun-13 09:28N 37°26' E 025°19'0 0.0
2018-Jun-13 08:52N 37°26' E 025°19'0 0.0
2018-Jun-13 08:25N 37°26' E 025°19'0 0.0
2018-Jun-13 07:58N 37°26' E 025°19'0 0.0
2018-Jun-13 07:28N 37°26' E 025°19'0 0.0
2018-Jun-13 06:55N 37°26' E 025°19'0 0.0
2018-Jun-13 06:28N 37°26' E 025°19'0 0.0
2018-Jun-13 05:55N 37°26' E 025°19'0 0.0
2018-Jun-13 05:28N 37°26' E 025°19'0 0.0
2018-Jun-13 04:58N 37°26' E 025°19'0 0.0
2018-Jun-13 04:28N 37°26' E 025°19'0 0.0
2018-Jun-13 03:55N 37°26' E 025°19'0 0.0
2018-Jun-13 03:25N 37°26' E 025°19'0 0.0
2018-Jun-13 02:58N 37°26' E 025°19'0 0.1
2018-Jun-13 02:25N 37°27' E 025°19'0 0.0
2018-Jun-13 01:58N 37°27' E 025°19'0 0.0
2018-Jun-13 01:22N 37°27' E 025°19'0 0.0
2018-Jun-13 01:01N 37°26' E 025°19'0 0.0
2018-Jun-13 00:27N 37°26' E 025°19'0 0.0
2018-Jun-13 00:00N 37°26' E 025°19'0 0.0
2018-Jun-12 23:30N 37°26' E 025°19'0 0.0
2018-Jun-12 23:00N 37°26' E 025°19'0 0.0
2018-Jun-12 22:27N 37°26' E 025°19'0 0.0
2018-Jun-12 21:57N 37°26' E 025°19'0 0.0
2018-Jun-12 20:00N 37°26' E 025°19'0 0.0
2018-Jun-12 19:30N 37°26' E 025°19'0 0.0
2018-Jun-12 19:00N 37°26' E 025°19'0 0.0
2018-Jun-12 18:30N 37°26' E 025°19'0 0.0
2018-Jun-12 18:00N 37°26' E 025°19'0 0.0
2018-Jun-12 17:30N 37°26' E 025°19'0 0.0
2018-Jun-12 17:00N 37°26' E 025°19'0 0.0
2018-Jun-12 16:24N 37°26' E 025°19'0 0.0
2018-Jun-12 15:27N 37°26' E 025°19'0 0.0
2018-Jun-12 15:00N 37°26' E 025°19'0 0.0
2018-Jun-12 14:30N 37°26' E 025°19'0 0.0
2018-Jun-12 14:00N 37°26' E 025°19'0 0.0
2018-Jun-12 13:30N 37°26' E 025°19'0 0.0
2018-Jun-12 13:00N 37°26' E 025°19'0 0.0
2018-Jun-12 12:30N 37°26' E 025°19'0 0.0
2018-Jun-12 12:00N 37°26' E 025°19'0 0.0
2018-Jun-12 11:27N 37°26' E 025°19'0 0.0
2018-Jun-12 10:54N 37°26' E 025°19'0 0.1
2018-Jun-12 10:30N 37°26' E 025°19'0 0.0
2018-Jun-12 09:48N 37°26' E 025°19'0 0.0
2018-Jun-12 09:30N 37°26' E 025°19'0 0.0
2018-Jun-12 09:00N 37°26' E 025°19'0 0.0
2018-Jun-12 08:30N 37°26' E 025°19'0 0.0
2018-Jun-12 08:00N 37°26' E 025°19'0 0.0
2018-Jun-12 07:30N 37°26' E 025°19'0 0.0
2018-Jun-12 06:54N 37°26' E 025°19'0 0.0
2018-Jun-12 06:30N 37°26' E 025°19'0 0.0
2018-Jun-12 06:00N 37°26' E 025°19'0 0.0
2018-Jun-12 05:30N 37°26' E 025°19'0 0.0
2018-Jun-12 05:00N 37°26' E 025°19'0 0.0
2018-Jun-12 04:24N 37°26' E 025°19'0 0.0
2018-Jun-12 04:00N 37°26' E 025°19'0 0.0
2018-Jun-12 03:30N 37°26' E 025°19'0 0.0
2018-Jun-12 03:00N 37°26' E 025°19'0 0.0
2018-Jun-12 02:30N 37°26' E 025°19'0 0.0
2018-Jun-12 02:00N 37°26' E 025°19'0 0.0
2018-Jun-12 01:30N 37°26' E 025°19'0 0.0
2018-Jun-12 00:54N 37°26' E 025°19'0 0.0
2018-Jun-12 00:30N 37°26' E 025°19'0 0.0
2018-Jun-12 00:00N 37°26' E 025°19'0 0.0
2018-Jun-11 23:24N 37°26' E 025°19'0 0.0
2018-Jun-11 23:00N 37°26' E 025°19'0 0.0
2018-Jun-11 22:27N 37°26' E 025°19'0 0.0
2018-Jun-11 22:00N 37°26' E 025°19'0 0.0
2018-Jun-11 21:27N 37°26' E 025°19'0 0.0
2018-Jun-11 20:51N 37°26' E 025°19'0 0.0
2018-Jun-11 20:30N 37°26' E 025°19'0 0.0
2018-Jun-11 19:57N 37°26' E 025°19'0 0.0
2018-Jun-11 19:30N 37°26' E 025°19'0 0.0
2018-Jun-11 19:00N 37°26' E 025°19'0 0.0
2018-Jun-11 18:30N 37°26' E 025°19'0 0.0
2018-Jun-11 17:57N 37°26' E 025°19'0 0.0
2018-Jun-11 17:30N 37°26' E 025°19'0 0.0
2018-Jun-11 16:57N 37°26' E 025°19'0 0.0
2018-Jun-11 16:30N 37°26' E 025°19'0 0.0
2018-Jun-11 16:00N 37°26' E 025°19'0 0.0
2018-Jun-11 15:27N 37°26' E 025°19'0 0.0
2018-Jun-11 14:59N 37°26' E 025°19'0 0.0
2018-Jun-11 14:29N 37°26' E 025°19'0 0.0
2018-Jun-11 13:59N 37°26' E 025°19'0 0.0
2018-Jun-11 13:26N 37°26' E 025°19'0 0.0
2018-Jun-11 12:53N 37°26' E 025°19'0 0.0
2018-Jun-11 12:29N 37°26' E 025°19'0 0.0
2018-Jun-11 11:59N 37°26' E 025°19'0 0.0
2018-Jun-11 11:29N 37°26' E 025°19'0 0.0
2018-Jun-11 10:59N 37°26' E 025°19'0 0.0
2018-Jun-11 10:26N 37°26' E 025°19'0 0.0
2018-Jun-11 09:59N 37°26' E 025°19'0 0.0
2018-Jun-11 09:26N 37°26' E 025°19'0 0.0
2018-Jun-11 08:59N 37°26' E 025°19'0 0.0
2018-Jun-11 08:29N 37°26' E 025°19'0 0.0
2018-Jun-11 07:59N 37°26' E 025°19'0 0.0
2018-Jun-11 07:29N 37°26' E 025°19'0 0.0
2018-Jun-11 06:59N 37°26' E 025°19'0 0.0
2018-Jun-11 06:23N 37°26' E 025°19'0 0.0
2018-Jun-11 05:59N 37°26' E 025°19'0 0.0
2018-Jun-11 05:29N 37°26' E 025°19'0 0.0
2018-Jun-11 04:53N 37°26' E 025°19'0 0.0
2018-Jun-11 04:29N 37°26' E 025°19'0 0.0
2018-Jun-11 03:59N 37°26' E 025°19'0 0.3
2018-Jun-11 03:30N 37°27' E 025°19'2 4.6
2018-Jun-11 03:00N 37°28' E 025°17'4 7.6
2018-Jun-11 02:30N 37°29' E 025°12'4 8.5
2018-Jun-11 02:00N 37°30' E 025°07'12 9.2
2018-Jun-11 00:43N 37°37' E 024°55'2 9.6
2018-Jun-11 00:30N 37°39' E 024°53'  
Track history (hours):
 
Tides and Currents Weather Stations Pressure Air Temp Water Temp Dewpoint Dewpoint Depression Visibility Wind Speed Wind Dir Waves Ship Positions

Madares

Last reported at 2018-Jun-16 06:40 UTC. Time now 2018-Jun-19 12:21 UTC.
Position N 37°40' E 024°47'.

Length 38 m; draft 6 m.

Type: Cargo ship. MMSI: 239863100.

Date/timePositionNaut miles runAvg speedWind from/ knotsBaromVisibWave heightAir tempDewpointWater temp
2018-Jun-16 06:40N 37°40' E 024°47'3 8.8
2018-Jun-16 06:19N 37°38' E 024°50'15 8.8
2018-Jun-16 04:35N 37°27' E 025°03'1 8.8
2018-Jun-16 04:30N 37°27' E 025°04'4 8.6
2018-Jun-16 04:00N 37°24' E 025°08'4 9.0
2018-Jun-16 03:30N 37°20' E 025°11'5 9.0
2018-Jun-16 03:00N 37°17' E 025°15'4 8.7
2018-Jun-16 02:30N 37°13' E 025°18'4 8.4
2018-Jun-16 02:00N 37°09' E 025°20'5 9.7
2018-Jun-16 01:30N 37°05' E 025°18'5 9.4
2018-Jun-16 01:00N 36°60' E 025°17'2 0.1
2018-Jun-14 16:16N 36°59' E 025°19'2 9.4
2018-Jun-14 16:00N 37°01' E 025°19'4 8.9
2018-Jun-14 15:30N 37°06' E 025°19'4 8.8
2018-Jun-14 15:00N 37°10' E 025°19'5 9.2
2018-Jun-14 14:30N 37°15' E 025°19'5 9.5
2018-Jun-14 14:00N 37°20' E 025°18'5 9.7
2018-Jun-14 13:30N 37°24' E 025°17'3 2.8
2018-Jun-14 12:35N 37°27' E 025°19'0 0.0
2018-Jun-14 12:11N 37°27' E 025°19'0 0.1
2018-Jun-14 11:59N 37°27' E 025°19'0 0.0
2018-Jun-14 10:59N 37°27' E 025°19'0 0.1
2018-Jun-14 10:14N 37°27' E 025°19'0 0.0
2018-Jun-14 07:23N 37°27' E 025°19'0 0.1
2018-Jun-14 06:53N 37°27' E 025°19'1 2.9
2018-Jun-14 06:30N 37°28' E 025°20'0 0.2
2018-Jun-14 06:00N 37°28' E 025°20'0 0.0
2018-Jun-14 05:27N 37°28' E 025°20'0 0.0
2018-Jun-14 04:57N 37°28' E 025°20'0 0.0
2018-Jun-14 04:30N 37°28' E 025°20'0 0.0
2018-Jun-14 04:00N 37°28' E 025°20'0 0.0
2018-Jun-14 03:30N 37°28' E 025°20'0 0.0
2018-Jun-14 03:00N 37°28' E 025°20'0 0.0
2018-Jun-14 02:30N 37°28' E 025°20'0 0.0
2018-Jun-14 02:00N 37°28' E 025°20'0 0.0
2018-Jun-14 01:30N 37°28' E 025°20'0 0.0
2018-Jun-14 01:00N 37°28' E 025°20'0 0.0
2018-Jun-14 00:30N 37°28' E 025°20'0 0.0
2018-Jun-13 23:57N 37°28' E 025°20'0 0.0
2018-Jun-13 23:30N 37°28' E 025°20'0 0.0
2018-Jun-13 23:00N 37°28' E 025°20'0 0.0
2018-Jun-13 22:30N 37°28' E 025°20'0 0.0
2018-Jun-13 22:00N 37°28' E 025°20'0 0.0
2018-Jun-13 21:30N 37°28' E 025°20'0 0.0
2018-Jun-13 20:59N 37°28' E 025°20'0 0.0
2018-Jun-13 20:29N 37°28' E 025°20'0 0.0
2018-Jun-13 19:56N 37°28' E 025°20'0 0.0
2018-Jun-13 19:29N 37°28' E 025°20'0 0.0
2018-Jun-13 18:59N 37°28' E 025°20'0 0.0
2018-Jun-13 18:26N 37°28' E 025°20'0 0.0
2018-Jun-13 17:56N 37°28' E 025°20'0 0.0
2018-Jun-13 17:29N 37°28' E 025°20'0 0.0
2018-Jun-13 16:59N 37°28' E 025°20'0 0.0
2018-Jun-13 16:29N 37°28' E 025°20'0 0.0
2018-Jun-13 15:59N 37°28' E 025°20'0 0.0
2018-Jun-13 15:29N 37°28' E 025°20'0 0.0
2018-Jun-13 14:59N 37°28' E 025°20'0 0.0
2018-Jun-13 14:29N 37°28' E 025°20'0 0.0
2018-Jun-13 13:59N 37°28' E 025°20'0 0.0
2018-Jun-13 13:29N 37°28' E 025°20'0 0.0
2018-Jun-13 12:59N 37°28' E 025°20'0 0.0
2018-Jun-13 12:29N 37°28' E 025°20'0 0.0
2018-Jun-13 11:59N 37°28' E 025°20'0 0.1
2018-Jun-13 11:29N 37°28' E 025°20'1 2.2
2018-Jun-13 10:58N 37°27' E 025°19'0 0.2
2018-Jun-13 10:25N 37°26' E 025°19'0 0.0
2018-Jun-13 09:49N 37°26' E 025°19'0 0.0
2018-Jun-13 09:28N 37°26' E 025°19'0 0.0
2018-Jun-13 08:52N 37°26' E 025°19'0 0.0
2018-Jun-13 08:25N 37°26' E 025°19'0 0.0
2018-Jun-13 07:58N 37°26' E 025°19'0 0.0
2018-Jun-13 07:28N 37°26' E 025°19'0 0.0
2018-Jun-13 06:55N 37°26' E 025°19'0 0.0
2018-Jun-13 06:28N 37°26' E 025°19'0 0.0
2018-Jun-13 05:55N 37°26' E 025°19'0 0.0
2018-Jun-13 05:28N 37°26' E 025°19'0 0.0
2018-Jun-13 04:58N 37°26' E 025°19'0 0.0
2018-Jun-13 04:28N 37°26' E 025°19'0 0.0
2018-Jun-13 03:55N 37°26' E 025°19'0 0.0
2018-Jun-13 03:25N 37°26' E 025°19'0 0.0
2018-Jun-13 02:58N 37°26' E 025°19'0 0.1
2018-Jun-13 02:25N 37°27' E 025°19'0 0.0
2018-Jun-13 01:58N 37°27' E 025°19'0 0.0
2018-Jun-13 01:22N 37°27' E 025°19'0 0.0
2018-Jun-13 01:01N 37°26' E 025°19'0 0.0
2018-Jun-13 00:27N 37°26' E 025°19'0 0.0
2018-Jun-13 00:00N 37°26' E 025°19'0 0.0
2018-Jun-12 23:30N 37°26' E 025°19'0 0.0
2018-Jun-12 23:00N 37°26' E 025°19'0 0.0
2018-Jun-12 22:27N 37°26' E 025°19'0 0.0
2018-Jun-12 21:57N 37°26' E 025°19'0 0.0
2018-Jun-12 20:00N 37°26' E 025°19'0 0.0
2018-Jun-12 19:30N 37°26' E 025°19'0 0.0
2018-Jun-12 19:00N 37°26' E 025°19'0 0.0
2018-Jun-12 18:30N 37°26' E 025°19'0 0.0
2018-Jun-12 18:00N 37°26' E 025°19'0 0.0
2018-Jun-12 17:30N 37°26' E 025°19'0 0.0
2018-Jun-12 17:00N 37°26' E 025°19'0 0.0
2018-Jun-12 16:24N 37°26' E 025°19'0 0.0
2018-Jun-12 15:27N 37°26' E 025°19'0 0.0
2018-Jun-12 15:00N 37°26' E 025°19'0 0.0
2018-Jun-12 14:30N 37°26' E 025°19'0 0.0
2018-Jun-12 14:00N 37°26' E 025°19'0 0.0
2018-Jun-12 13:30N 37°26' E 025°19'0 0.0
2018-Jun-12 13:00N 37°26' E 025°19'0 0.0
2018-Jun-12 12:30N 37°26' E 025°19'0 0.0
2018-Jun-12 12:00N 37°26' E 025°19'0 0.0
2018-Jun-12 11:27N 37°26' E 025°19'0 0.0
2018-Jun-12 10:54N 37°26' E 025°19'0 0.1
2018-Jun-12 10:30N 37°26' E 025°19'0 0.0
2018-Jun-12 09:48N 37°26' E 025°19'0 0.0
2018-Jun-12 09:30N 37°26' E 025°19'0 0.0
2018-Jun-12 09:00N 37°26' E 025°19'0 0.0
2018-Jun-12 08:30N 37°26' E 025°19'0 0.0
2018-Jun-12 08:00N 37°26' E 025°19'0 0.0
2018-Jun-12 07:30N 37°26' E 025°19'0 0.0
2018-Jun-12 06:54N 37°26' E 025°19'0 0.0
2018-Jun-12 06:30N 37°26' E 025°19'0 0.0
2018-Jun-12 06:00N 37°26' E 025°19'0 0.0
2018-Jun-12 05:30N 37°26' E 025°19'0 0.0
2018-Jun-12 05:00N 37°26' E 025°19'0 0.0
2018-Jun-12 04:24N 37°26' E 025°19'0 0.0
2018-Jun-12 04:00N 37°26' E 025°19'0 0.0
2018-Jun-12 03:30N 37°26' E 025°19'0 0.0
2018-Jun-12 03:00N 37°26' E 025°19'0 0.0
2018-Jun-12 02:30N 37°26' E 025°19'0 0.0
2018-Jun-12 02:00N 37°26' E 025°19'0 0.0
2018-Jun-12 01:30N 37°26' E 025°19'0 0.0
2018-Jun-12 00:54N 37°26' E 025°19'0 0.0
2018-Jun-12 00:30N 37°26' E 025°19'0 0.0
2018-Jun-12 00:00N 37°26' E 025°19'0 0.0
2018-Jun-11 23:24N 37°26' E 025°19'0 0.0
2018-Jun-11 23:00N 37°26' E 025°19'0 0.0
2018-Jun-11 22:27N 37°26' E 025°19'0 0.0
2018-Jun-11 22:00N 37°26' E 025°19'0 0.0
2018-Jun-11 21:27N 37°26' E 025°19'0 0.0
2018-Jun-11 20:51N 37°26' E 025°19'0 0.0
2018-Jun-11 20:30N 37°26' E 025°19'0 0.0
2018-Jun-11 19:57N 37°26' E 025°19'0 0.0
2018-Jun-11 19:30N 37°26' E 025°19'0 0.0
2018-Jun-11 19:00N 37°26' E 025°19'0 0.0
2018-Jun-11 18:30N 37°26' E 025°19'0 0.0
2018-Jun-11 17:57N 37°26' E 025°19'0 0.0
2018-Jun-11 17:30N 37°26' E 025°19'0 0.0
2018-Jun-11 16:57N 37°26' E 025°19'0 0.0
2018-Jun-11 16:30N 37°26' E 025°19'0 0.0
2018-Jun-11 16:00N 37°26' E 025°19'0 0.0
2018-Jun-11 15:27N 37°26' E 025°19'0 0.0
2018-Jun-11 14:59N 37°26' E 025°19'0 0.0
2018-Jun-11 14:29N 37°26' E 025°19'0 0.0
2018-Jun-11 13:59N 37°26' E 025°19'0 0.0
2018-Jun-11 13:26N 37°26' E 025°19'0 0.0
2018-Jun-11 12:53N 37°26' E 025°19'0 0.0
2018-Jun-11 12:29N 37°26' E 025°19'0 0.0
2018-Jun-11 11:59N 37°26' E 025°19'0 0.0
2018-Jun-11 11:29N 37°26' E 025°19'0 0.0
2018-Jun-11 10:59N 37°26' E 025°19'0 0.0
2018-Jun-11 10:26N 37°26' E 025°19'0 0.0
2018-Jun-11 09:59N 37°26' E 025°19'0 0.0
2018-Jun-11 09:26N 37°26' E 025°19'0 0.0
2018-Jun-11 08:59N 37°26' E 025°19'0 0.0
2018-Jun-11 08:29N 37°26' E 025°19'0 0.0
2018-Jun-11 07:59N 37°26' E 025°19'0 0.0
2018-Jun-11 07:29N 37°26' E 025°19'0 0.0
2018-Jun-11 06:59N 37°26' E 025°19'0 0.0
2018-Jun-11 06:23N 37°26' E 025°19'0 0.0
2018-Jun-11 05:59N 37°26' E 025°19'0 0.0
2018-Jun-11 05:29N 37°26' E 025°19'0 0.0
2018-Jun-11 04:53N 37°26' E 025°19'0 0.0
2018-Jun-11 04:29N 37°26' E 025°19'0 0.0
2018-Jun-11 03:59N 37°26' E 025°19'0 0.3
2018-Jun-11 03:30N 37°27' E 025°19'2 4.6
2018-Jun-11 03:00N 37°28' E 025°17'4 7.6
2018-Jun-11 02:30N 37°29' E 025°12'4 8.5
2018-Jun-11 02:00N 37°30' E 025°07'12 9.2
2018-Jun-11 00:43N 37°37' E 024°55'2 9.6
2018-Jun-11 00:30N 37°39' E 024°53'  

Dump ship's entire track history